Time;durP1;ratioP1;P1;durP2;ratioP2;P2;SDS_P1;SDS_P2;PMS_P1;PMS_P2;Temp;Humidity;BMP_temperature;BMP_pressure;BME280_temperature;BME280_humidity;BME280_pressure;Samples;Min_cycle;Max_cycle;Signal;HPM_P1;HPM_P2
2022/06/01 00:00:11;;;;;;;4.57;1.02;;;;;;;;;;4784112;30;20047;-75
2022/06/01 00:02:42;;;;;;;4.00;1.05;;;;;;;;;;4783473;30;20437;-74
2022/06/01 00:05:13;;;;;;;2.63;0.75;;;;;;;;;;4783713;30;20534;-75
2022/06/01 00:07:42;;;;;;;4.35;1.10;;;;;;;;;;4783323;30;20051;-74
2022/06/01 00:10:13;;;;;;;2.80;1.08;;;;;;;;;;4783603;30;20056;-74
2022/06/01 00:12:43;;;;;;;1.77;0.90;;;;;;;;;;4782854;30;20063;-73
2022/06/01 00:15:15;;;;;;;3.77;1.00;;;;;;;;;;4783926;30;20066;-74
2022/06/01 00:17:45;;;;;;;3.42;1.15;;;;;;;;;;4767117;30;20316;-71
2022/06/01 00:20:16;;;;;;;2.65;1.33;;;;;;;;;;4782559;30;20047;-73
2022/06/01 00:22:46;;;;;;;11.32;3.70;;;;;;;;;;4765673;30;20062;-73
2022/06/01 00:25:16;;;;;;;10.15;3.67;;;;;;;;;;4782806;30;20080;-73
2022/06/01 00:27:46;;;;;;;7.00;3.42;;;;;;;;;;4782950;30;20500;-71
2022/06/01 00:30:17;;;;;;;6.32;3.67;;;;;;;;;;4783059;30;20515;-71
2022/06/01 00:32:48;;;;;;;11.45;4.95;;;;;;;;;;4782754;30;20048;-73
2022/06/01 00:35:23;;;;;;;13.00;7.90;;;;;;;;;;4783393;30;20055;-73
2022/06/01 00:37:54;;;;;;;13.18;6.20;;;;;;;;;;4783582;30;20296;-72
2022/06/01 00:40:28;;;;;;;7.93;4.95;;;;;;;;;;4783017;30;20055;-74
2022/06/01 00:43:01;;;;;;;12.70;4.95;;;;;;;;;;4782749;30;20051;-71
2022/06/01 00:45:31;;;;;;;3.72;2.22;;;;;;;;;;4782358;30;20440;-72
2022/06/01 00:48:01;;;;;;;8.00;2.45;;;;;;;;;;4781929;30;20067;-73
2022/06/01 00:50:37;;;;;;;9.98;2.38;;;;;;;;;;4782829;30;20055;-73
2022/06/01 00:53:22;;;;;;;5.95;2.13;;;;;;;;;;4783229;30;20528;-71
2022/06/01 00:56:00;;;;;;;7.28;1.95;;;;;;;;;;4782701;30;20412;-71
2022/06/01 00:58:37;;;;;;;5.25;1.60;;;;;;;;;;4766972;30;20064;-72
2022/06/01 01:01:11;;;;;;;5.03;1.60;;;;;;;;;;4782253;29;20066;-71
2022/06/01 01:03:45;;;;;;;3.45;1.45;;;;;;;;;;4782148;30;20051;-73
2022/06/01 01:06:31;;;;;;;2.65;1.50;;;;;;;;;;4782433;30;20568;-75
2022/06/01 01:09:02;;;;;;;2.50;1.10;;;;;;;;;;4793969;29;20046;-72
2022/06/01 01:11:46;;;;;;;9.27;1.50;;;;;;;;;;4818683;29;20046;-73
2022/06/01 01:14:23;;;;;;;4.10;1.20;;;;;;;;;;4818814;29;20535;-73
2022/06/01 01:16:54;;;;;;;3.55;1.13;;;;;;;;;;4817787;29;20046;-72
2022/06/01 01:19:34;;;;;;;4.00;1.25;;;;;;;;;;4800853;29;20093;-73
2022/06/01 01:22:31;;;;;;;2.28;1.08;;;;;;;;;;4818524;29;20530;-70
2022/06/01 01:25:19;;;;;;;6.57;1.45;;;;;;;;;;4815233;29;20050;-71
2022/06/01 01:27:52;;;;;;;1.85;0.85;;;;;;;;;;4817631;29;20412;-71
2022/06/01 01:30:28;;;;;;;8.63;1.42;;;;;;;;;;4817930;29;20053;-71
2022/06/01 01:33:21;;;;;;;5.13;1.55;;;;;;;;;;4818234;29;20820;-73
2022/06/01 01:35:55;;;;;;;3.35;1.20;;;;;;;;;;4818891;29;20137;-71
2022/06/01 01:38:53;;;;;;;5.25;1.38;;;;;;;;;;4818922;29;20057;-71
2022/06/01 01:41:36;;;;;;;4.00;1.45;;;;;;;;;;4818103;29;20057;-72
2022/06/01 01:44:30;;;;;;;7.53;1.90;;;;;;;;;;4818545;29;20510;-72
2022/06/01 01:47:01;;;;;;;3.72;1.35;;;;;;;;;;4818290;29;20054;-73
2022/06/01 01:49:34;;;;;;;3.45;1.33;;;;;;;;;;4818289;29;20066;-71
2022/06/01 01:52:16;;;;;;;3.28;1.63;;;;;;;;;;4817948;29;20065;-72
2022/06/01 01:54:49;;;;;;;6.15;1.90;;;;;;;;;;4818883;29;20061;-72
2022/06/01 01:57:40;;;;;;;6.25;2.10;;;;;;;;;;4802292;29;20047;-72
2022/06/01 02:00:35;;;;;;;4.63;2.40;;;;;;;;;;4800763;29;20062;-71
2022/06/01 02:03:24;;;;;;;9.98;3.05;;;;;;;;;;4817099;29;20069;-72
2022/06/01 02:06:11;;;;;;;4.68;2.78;;;;;;;;;;4818237;29;20422;-71
2022/06/01 02:08:58;;;;;;;5.72;2.60;;;;;;;;;;4800822;29;20054;-74
2022/06/01 02:14:36;;;;;;;5.20;2.83;;;;;;;;;;4817816;29;20782;-72
2022/06/01 02:17:09;;;;;;;6.85;3.70;;;;;;;;;;4817985;29;20066;-72
2022/06/01 02:20:10;;;;;;;5.63;2.95;;;;;;;;;;4818323;29;20410;-72
2022/06/01 02:22:41;;;;;;;4.38;2.85;;;;;;;;;;4812765;29;20062;-71
2022/06/01 02:25:12;;;;;;;6.88;3.22;;;;;;;;;;4817958;29;20047;-74
2022/06/01 02:27:44;;;;;;;7.55;2.60;;;;;;;;;;4818077;29;20054;-73
2022/06/01 02:30:35;;;;;;;4.43;2.67;;;;;;;;;;4817996;29;20526;-74
2022/06/01 02:33:09;;;;;;;5.13;2.28;;;;;;;;;;4817715;29;20054;-72
2022/06/01 02:35:43;;;;;;;10.88;2.97;;;;;;;;;;4817591;29;20419;-74
2022/06/01 02:38:18;;;;;;;10.27;3.83;;;;;;;;;;4817682;29;20411;-73
2022/06/01 02:40:48;;;;;;;6.65;3.30;;;;;;;;;;4818036;29;20419;-71
2022/06/01 02:43:18;;;;;;;5.55;2.05;;;;;;;;;;4801994;29;20054;-74
2022/06/01 02:45:48;;;;;;;5.15;2.15;;;;;;;;;;4817984;29;20103;-73
2022/06/01 02:48:18;;;;;;;4.95;1.83;;;;;;;;;;4817892;29;20050;-73
2022/06/01 02:50:48;;;;;;;5.10;2.00;;;;;;;;;;4817237;29;20070;-74
2022/06/01 02:53:18;;;;;;;7.05;2.17;;;;;;;;;;4817782;29;20054;-72
2022/06/01 02:55:48;;;;;;;7.38;2.88;;;;;;;;;;4817222;29;20062;-72
2022/06/01 02:58:18;;;;;;;6.80;2.20;;;;;;;;;;4818025;29;20062;-71
2022/06/01 03:00:53;;;;;;;6.22;2.30;;;;;;;;;;4817374;29;20058;-74
2022/06/01 03:03:23;;;;;;;12.27;2.42;;;;;;;;;;4817981;29;20065;-70
2022/06/01 03:05:53;;;;;;;5.85;2.10;;;;;;;;;;4817467;29;20043;-71
2022/06/01 03:08:24;;;;;;;4.60;2.00;;;;;;;;;;4817309;29;20062;-73
2022/06/01 03:10:54;;;;;;;3.17;2.20;;;;;;;;;;4817285;29;20137;-73
2022/06/01 03:13:25;;;;;;;4.53;2.20;;;;;;;;;;4817072;29;20097;-73
2022/06/01 03:15:55;;;;;;;4.95;2.10;;;;;;;;;;4800459;29;20069;-73
2022/06/01 03:18:25;;;;;;;7.13;2.15;;;;;;;;;;4817954;29;20411;-73
2022/06/01 03:20:55;;;;;;;5.47;1.90;;;;;;;;;;4817391;29;20059;-73
2022/06/01 03:23:27;;;;;;;4.63;2.60;;;;;;;;;;4817535;29;20050;-71
2022/06/01 03:25:57;;;;;;;10.75;2.95;;;;;;;;;;4818526;29;20396;-72
2022/06/01 03:28:27;;;;;;;6.03;3.05;;;;;;;;;;4821021;29;20055;-72
2022/06/01 03:30:58;;;;;;;10.38;1.92;;;;;;;;;;4820455;29;20061;-73
2022/06/01 03:33:28;;;;;;;6.32;1.80;;;;;;;;;;4820107;29;20058;-71
2022/06/01 03:35:57;;;;;;;7.20;2.00;;;;;;;;;;4820447;29;20498;-71
2022/06/01 03:38:27;;;;;;;4.15;1.90;;;;;;;;;;4820788;29;20069;-73
2022/06/01 03:40:57;;;;;;;7.43;1.80;;;;;;;;;;4821302;29;20495;-73
2022/06/01 03:43:27;;;;;;;4.43;1.45;;;;;;;;;;4820291;29;20070;-72
2022/06/01 03:45:59;;;;;;;5.17;1.80;;;;;;;;;;4820310;29;20054;-72
2022/06/01 03:48:31;;;;;;;5.15;1.48;;;;;;;;;;4819975;29;20058;-74
2022/06/01 03:51:01;;;;;;;8.15;1.90;;;;;;;;;;4820421;29;20538;-70
2022/06/01 03:53:31;;;;;;;5.43;1.52;;;;;;;;;;4820393;29;20057;-72
2022/06/01 03:56:02;;;;;;;5.80;1.90;;;;;;;;;;4819809;29;20507;-72
2022/06/01 03:58:33;;;;;;;7.80;1.67;;;;;;;;;;4819884;29;20064;-71
2022/06/01 04:01:07;;;;;;;4.57;1.60;;;;;;;;;;4820284;29;20055;-73
2022/06/01 04:03:37;;;;;;;5.25;2.03;;;;;;;;;;4820040;29;20376;-73
2022/06/01 04:06:07;;;;;;;3.38;1.30;;;;;;;;;;4821043;29;20050;-72
2022/06/01 04:08:37;;;;;;;4.32;1.50;;;;;;;;;;4820062;29;20054;-73
2022/06/01 04:11:07;;;;;;;7.97;1.55;;;;;;;;;;4820539;29;20077;-71
2022/06/01 04:13:37;;;;;;;2.33;1.10;;;;;;;;;;4819507;29;20054;-72
2022/06/01 04:16:07;;;;;;;4.57;1.40;;;;;;;;;;4819375;29;20054;-74
2022/06/01 04:18:48;;;;;;;4.50;1.10;;;;;;;;;;4819482;29;20059;-73
2022/06/01 04:21:25;;;;;;;3.13;1.08;;;;;;;;;;4819540;29;20062;-73
2022/06/01 04:24:00;;;;;;;3.42;1.13;;;;;;;;;;4819664;29;20050;-72
2022/06/01 04:26:30;;;;;;;2.95;1.13;;;;;;;;;;4819968;29;20050;-70
2022/06/01 04:29:01;;;;;;;4.25;1.10;;;;;;;;;;4819805;29;20329;-73
2022/06/01 04:31:32;;;;;;;1.98;1.33;;;;;;;;;;4819725;29;20507;-74
2022/06/01 04:34:04;;;;;;;2.80;1.10;;;;;;;;;;4819461;29;20057;-71
2022/06/01 04:36:34;;;;;;;3.45;1.10;;;;;;;;;;4819216;29;20050;-71
2022/06/01 04:39:04;;;;;;;4.40;1.10;;;;;;;;;;4802261;29;20518;-73
2022/06/01 04:41:34;;;;;;;2.35;0.77;;;;;;;;;;4819606;29;20065;-71
2022/06/01 04:44:04;;;;;;;6.55;3.13;;;;;;;;;;4819578;29;20054;-71
2022/06/01 04:46:36;;;;;;;4.85;0.95;;;;;;;;;;4819407;29;20054;-73
2022/06/01 04:49:07;;;;;;;9.23;0.60;;;;;;;;;;4801701;29;20058;-70
2022/06/01 04:51:38;;;;;;;1.83;0.85;;;;;;;;;;4819599;29;20051;-73
2022/06/01 04:54:08;;;;;;;1.60;0.75;;;;;;;;;;4819034;29;20065;-71
2022/06/01 04:56:39;;;;;;;4.72;1.02;;;;;;;;;;4819033;29;20415;-73
2022/06/01 04:59:09;;;;;;;2.42;1.08;;;;;;;;;;4819709;29;20059;-73
2022/06/01 05:01:39;;;;;;;6.07;0.88;;;;;;;;;;4802842;29;20430;-71
2022/06/01 05:04:09;;;;;;;2.38;0.93;;;;;;;;;;4818544;29;20427;-71
2022/06/01 05:06:39;;;;;;;3.55;0.80;;;;;;;;;;4818851;29;20525;-71
2022/06/01 05:09:09;;;;;;;3.78;0.95;;;;;;;;;;4819157;29;20051;-72
2022/06/01 05:11:38;;;;;;;6.43;0.80;;;;;;;;;;4818897;29;20065;-71
2022/06/01 05:14:08;;;;;;;8.60;0.82;;;;;;;;;;4802591;29;20058;-74
2022/06/01 05:16:39;;;;;;;3.30;0.85;;;;;;;;;;4819091;29;20055;-73
2022/06/01 05:19:08;;;;;;;1.30;0.50;;;;;;;;;;4818772;29;20396;-72
2022/06/01 05:21:38;;;;;;;6.28;0.90;;;;;;;;;;4818566;29;20054;-72
2022/06/01 05:24:08;;;;;;;3.38;0.80;;;;;;;;;;4819376;29;20050;-73
2022/06/01 05:26:38;;;;;;;2.67;0.95;;;;;;;;;;4817083;29;20518;-73
2022/06/01 05:29:08;;;;;;;3.75;1.08;;;;;;;;;;4818437;29;20153;-73
2022/06/01 05:31:38;;;;;;;1.33;0.77;;;;;;;;;;4818654;29;20062;-72
2022/06/01 05:34:07;;;;;;;8.55;0.80;;;;;;;;;;4818147;29;20431;-72
2022/06/01 05:36:37;;;;;;;5.82;0.98;;;;;;;;;;4818821;29;20483;-72
2022/06/01 05:39:07;;;;;;;2.47;0.70;;;;;;;;;;4817937;29;20419;-71
2022/06/01 05:41:37;;;;;;;3.63;0.90;;;;;;;;;;4818918;29;20050;-73
2022/06/01 05:44:07;;;;;;;9.77;0.80;;;;;;;;;;4818866;29;20404;-73
2022/06/01 05:46:37;;;;;;;2.08;1.17;;;;;;;;;;4818637;29;20054;-72
2022/06/01 05:49:07;;;;;;;3.33;1.00;;;;;;;;;;4818206;29;20054;-71
2022/06/01 05:51:37;;;;;;;0.98;0.75;;;;;;;;;;4818386;29;20047;-73
2022/06/01 05:54:06;;;;;;;4.80;0.88;;;;;;;;;;4818212;29;20065;-73
2022/06/01 05:56:36;;;;;;;2.25;0.80;;;;;;;;;;4818458;29;20427;-71
2022/06/01 05:59:06;;;;;;;3.67;0.98;;;;;;;;;;4817819;29;20073;-71
2022/06/01 06:01:36;;;;;;;2.83;0.77;;;;;;;;;;4818766;29;20058;-72
2022/06/01 06:04:06;;;;;;;1.85;0.90;;;;;;;;;;4817982;29;20108;-73
2022/06/01 06:06:37;;;;;;;5.10;1.23;;;;;;;;;;4818335;29;20047;-71
2022/06/01 06:09:09;;;;;;;5.15;1.38;;;;;;;;;;4818251;29;20058;-71
2022/06/01 06:11:40;;;;;;;3.10;1.27;;;;;;;;;;4801522;29;20091;-71
2022/06/01 06:14:11;;;;;;;2.92;1.30;;;;;;;;;;4818477;29;20058;-72
2022/06/01 06:16:43;;;;;;;3.10;1.70;;;;;;;;;;4818362;29;20054;-71
2022/06/01 06:19:15;;;;;;;7.93;1.50;;;;;;;;;;4818529;29;20050;-72
2022/06/01 06:21:46;;;;;;;2.60;1.23;;;;;;;;;;4818453;29;20058;-73
2022/06/01 06:24:20;;;;;;;3.25;1.10;;;;;;;;;;4818377;29;20047;-73
2022/06/01 06:26:51;;;;;;;3.05;1.10;;;;;;;;;;4817606;29;20069;-73
2022/06/01 06:29:21;;;;;;;5.00;1.30;;;;;;;;;;4800989;29;20070;-72
2022/06/01 06:31:51;;;;;;;1.35;0.90;;;;;;;;;;4818188;29;20066;-72
2022/06/01 06:34:21;;;;;;;2.08;1.00;;;;;;;;;;4817681;29;20530;-72
2022/06/01 06:36:54;;;;;;;3.90;0.93;;;;;;;;;;4818291;29;20054;-73
2022/06/01 06:39:24;;;;;;;2.22;1.10;;;;;;;;;;4817848;29;20398;-70
2022/06/01 06:41:53;;;;;;;2.80;1.15;;;;;;;;;;4818202;29;20050;-73
2022/06/01 06:44:27;;;;;;;2.25;1.15;;;;;;;;;;4786583;29;20515;-72
2022/06/01 06:46:57;;;;;;;9.07;1.30;;;;;;;;;;4818081;29;20058;-75
2022/06/01 06:49:27;;;;;;;3.60;1.10;;;;;;;;;;4817565;29;20055;-71
2022/06/01 06:51:57;;;;;;;6.00;1.20;;;;;;;;;;4816674;29;20061;-74
2022/06/01 06:54:28;;;;;;;2.03;0.95;;;;;;;;;;4817589;29;20057;-72
2022/06/01 06:56:57;;;;;;;9.60;1.05;;;;;;;;;;4817631;29;20603;-75
2022/06/01 06:59:27;;;;;;;3.58;1.10;;;;;;;;;;4817359;29;20058;-72
2022/06/01 07:01:57;;;;;;;6.53;1.35;;;;;;;;;;4821386;29;20507;-73
2022/06/01 07:04:27;;;;;;;9.82;2.55;;;;;;;;;;4821010;29;20050;-74
2022/06/01 07:06:57;;;;;;;9.25;2.47;;;;;;;;;;4821555;29;20597;-74
2022/06/01 07:09:27;;;;;;;5.88;3.00;;;;;;;;;;4821567;29;20054;-71
2022/06/01 07:11:57;;;;;;;7.95;2.95;;;;;;;;;;4820966;29;20054;-72
2022/06/01 07:14:27;;;;;;;10.52;3.15;;;;;;;;;;4820941;29;20867;-71
2022/06/01 07:17:00;;;;;;;6.38;3.38;;;;;;;;;;4804668;29;20061;-73
2022/06/01 07:19:31;;;;;;;8.80;3.17;;;;;;;;;;4821574;29;20511;-73
2022/06/01 07:22:01;;;;;;;5.25;3.67;;;;;;;;;;4820061;29;20061;-71
2022/06/01 07:24:30;;;;;;;8.07;3.83;;;;;;;;;;4820807;29;20058;-71
2022/06/01 07:27:00;;;;;;;8.10;3.85;;;;;;;;;;4820952;29;20102;-72
2022/06/01 07:29:30;;;;;;;8.68;4.43;;;;;;;;;;4820590;29;20058;-73
2022/06/01 07:32:00;;;;;;;5.50;4.00;;;;;;;;;;4821108;29;20050;-72
2022/06/01 07:34:30;;;;;;;7.97;4.30;;;;;;;;;;4820478;29;20050;-73
2022/06/01 07:43:05;;;;;;;4.78;4.25;;;;;;;;;;4820899;29;20515;-71
2022/06/01 07:45:28;;;;;;;4.82;3.60;;;;;;;;;;4820357;29;20053;-71
2022/06/01 07:47:58;;;;;;;6.43;4.25;;;;;;;;;;4804356;29;20625;-72
2022/06/01 07:50:51;;;;;;;14.10;4.90;;;;;;;;;;4820468;29;20062;-73
2022/06/01 07:53:21;;;;;;;10.50;4.65;;;;;;;;;;4819668;29;20296;-71
2022/06/01 07:55:52;;;;;;;6.13;4.70;;;;;;;;;;4820624;29;20058;-72
2022/06/01 07:58:22;;;;;;;7.65;3.88;;;;;;;;;;4820276;29;20513;-74
2022/06/01 08:00:52;;;;;;;7.75;4.00;;;;;;;;;;4820178;29;20050;-73
2022/06/01 08:03:22;;;;;;;6.97;3.55;;;;;;;;;;4819939;29;20058;-72
2022/06/01 08:05:52;;;;;;;9.80;4.43;;;;;;;;;;4820629;29;20069;-72
2022/06/01 08:08:22;;;;;;;7.10;3.88;;;;;;;;;;4819943;29;20565;-73
2022/06/01 08:10:52;;;;;;;8.52;4.22;;;;;;;;;;4818860;29;20438;-74
2022/06/01 08:13:22;;;;;;;6.45;3.47;;;;;;;;;;4819874;29;20105;-71
2022/06/01 08:15:54;;;;;;;6.35;3.90;;;;;;;;;;4820155;29;20065;-72
2022/06/01 08:18:25;;;;;;;8.52;3.92;;;;;;;;;;4819626;29;20050;-73
2022/06/01 08:20:55;;;;;;;4.30;3.40;;;;;;;;;;4819750;29;20069;-72
2022/06/01 08:23:29;;;;;;;10.23;3.63;;;;;;;;;;4819389;29;20058;-73
2022/06/01 08:25:59;;;;;;;5.70;3.65;;;;;;;;;;4819580;29;20046;-72
2022/06/01 08:28:29;;;;;;;8.85;3.70;;;;;;;;;;4819951;29;20061;-73
2022/06/01 08:30:59;;;;;;;4.70;3.55;;;;;;;;;;4819774;29;20427;-72
2022/06/01 08:33:29;;;;;;;7.95;3.80;;;;;;;;;;4819526;29;20053;-73
2022/06/01 08:36:04;;;;;;;8.20;3.78;;;;;;;;;;4818872;29;20054;-74
2022/06/01 08:38:34;;;;;;;13.82;3.67;;;;;;;;;;4819523;29;20065;-72
2022/06/01 08:41:13;;;;;;;6.97;3.60;;;;;;;;;;4819476;29;20081;-72
2022/06/01 08:43:50;;;;;;;15.30;3.28;;;;;;;;;;4819271;29;20074;-73
2022/06/01 08:46:23;;;;;;;6.22;2.78;;;;;;;;;;4819390;29;20050;-73
2022/06/01 08:49:24;;;;;;;5.40;2.72;;;;;;;;;;4819542;29;20379;-72
2022/06/01 08:51:55;;;;;;;7.55;2.97;;;;;;;;;;4819650;29;20058;-74
2022/06/01 08:54:25;;;;;;;7.33;3.07;;;;;;;;;;4819546;29;20050;-74
2022/06/01 08:57:11;;;;;;;8.10;2.83;;;;;;;;;;4801741;29;20069;-71
2022/06/01 08:59:48;;;;;;;7.25;3.70;;;;;;;;;;4816139;29;20062;-71
2022/06/01 09:02:45;;;;;;;7.03;3.05;;;;;;;;;;4814999;29;20069;-73
2022/06/01 09:05:18;;;;;;;4.55;3.13;;;;;;;;;;4816853;29;20060;-73
2022/06/01 09:07:59;;;;;;;5.85;3.22;;;;;;;;;;4819118;29;20081;-74
2022/06/01 09:10:56;;;;;;;11.57;3.28;;;;;;;;;;4819205;29;20053;-72
2022/06/01 09:13:36;;;;;;;4.43;2.97;;;;;;;;;;4819087;29;20046;-72
2022/06/01 09:16:21;;;;;;;4.72;2.88;;;;;;;;;;4819098;29;20054;-72
2022/06/01 09:18:55;;;;;;;4.82;2.85;;;;;;;;;;4803062;29;20503;-73
2022/06/01 09:24:30;;;;;;;8.52;3.35;;;;;;;;;;4818909;29;20573;-72
2022/06/01 09:27:06;;;;;;;4.90;2.88;;;;;;;;;;4818514;29;20042;-71
2022/06/01 09:29:57;;;;;;;5.60;2.67;;;;;;;;;;4818719;29;20057;-72
2022/06/01 09:32:36;;;;;;;6.32;3.13;;;;;;;;;;4818238;29;20057;-74
2022/06/01 09:35:11;;;;;;;17.00;3.25;;;;;;;;;;4818424;29;20065;-74
2022/06/01 09:37:45;;;;;;;10.57;2.85;;;;;;;;;;4802305;29;20061;-74
2022/06/01 09:40:24;;;;;;;11.82;3.33;;;;;;;;;;4818382;29;20057;-75
2022/06/01 09:42:56;;;;;;;6.63;3.00;;;;;;;;;;4818160;29;20526;-75
2022/06/01 09:45:33;;;;;;;7.63;4.25;;;;;;;;;;4818874;29;20065;-75
2022/06/01 09:48:12;;;;;;;8.30;2.80;;;;;;;;;;4819167;29;20061;-75
2022/06/01 09:50:45;;;;;;;5.68;2.97;;;;;;;;;;4818859;29;20050;-74
2022/06/01 09:53:19;;;;;;;8.35;3.30;;;;;;;;;;4820004;29;20054;-75
2022/06/01 09:55:58;;;;;;;11.65;3.40;;;;;;;;;;4818790;29;20054;-74
2022/06/01 10:07:26;;;;;;;11.52;3.08;;;;;;;;;;4817755;29;20062;-74
2022/06/01 10:09:59;;;;;;;11.82;3.47;;;;;;;;;;4817635;29;20058;-76
2022/06/01 10:12:46;;;;;;;6.22;2.80;;;;;;;;;;4818201;29;20051;-74
2022/06/01 10:15:36;;;;;;;8.52;2.92;;;;;;;;;;4818084;29;20506;-74
2022/06/01 10:18:27;;;;;;;12.73;4.32;;;;;;;;;;4818042;29;20050;-73
2022/06/01 10:21:04;;;;;;;9.98;3.15;;;;;;;;;;4818783;29;20046;-74
2022/06/01 10:23:37;;;;;;;6.03;2.60;;;;;;;;;;4801969;29;20423;-73
2022/06/01 10:26:15;;;;;;;7.95;2.78;;;;;;;;;;4818054;29;20415;-70
2022/06/01 10:28:52;;;;;;;9.90;3.60;;;;;;;;;;4801010;29;20058;-72
2022/06/01 10:31:25;;;;;;;4.85;2.85;;;;;;;;;;4800886;29;20073;-71
2022/06/01 10:34:04;;;;;;;8.13;2.67;;;;;;;;;;4816916;29;20054;-75
2022/06/01 10:36:47;;;;;;;13.90;3.58;;;;;;;;;;4816230;29;20050;-71
2022/06/01 10:39:23;;;;;;;14.10;2.67;;;;;;;;;;4818105;29;20058;-71
2022/06/01 10:42:05;;;;;;;14.65;3.05;;;;;;;;;;4818204;29;20419;-73
2022/06/01 10:45:13;;;;;;;15.65;2.78;;;;;;;;;;4817596;29;20055;-72
2022/06/01 10:48:08;;;;;;;8.48;3.05;;;;;;;;;;4724843;30;20081;-73
2022/06/01 10:51:14;;;;;;;8.73;2.90;;;;;;;;;;4817411;29;20058;-73
2022/06/01 10:54:15;;;;;;;18.08;2.75;;;;;;;;;;4813156;29;20066;-72
2022/06/01 10:56:45;;;;;;;;;;;;;;;;;;4802020;29;20428;-74
2022/06/01 10:59:17;;;;;;;9.27;2.50;;;;;;;;;;4817670;29;19929;-75
2022/06/01 11:01:56;;;;;;;8.60;2.67;;;;;;;;;;4816862;29;20050;-72
2022/06/01 11:04:44;;;;;;;13.20;2.70;;;;;;;;;;4817326;29;20499;-72
2022/06/01 11:07:33;;;;;;;13.93;2.35;;;;;;;;;;4818247;29;20395;-74
2022/06/01 11:10:06;;;;;;;9.13;2.67;;;;;;;;;;4817448;29;20058;-73
2022/06/01 11:12:52;;;;;;;7.63;2.88;;;;;;;;;;4817581;29;20555;-76
2022/06/01 11:15:57;;;;;;;8.18;2.72;;;;;;;;;;4817406;29;20125;-73
2022/06/01 11:18:33;;;;;;;6.68;2.80;;;;;;;;;;4771289;29;20410;-72
2022/06/01 11:21:34;;;;;;;10.52;2.78;;;;;;;;;;4816249;29;20058;-73
2022/06/01 11:24:15;;;;;;;13.13;2.92;;;;;;;;;;4816875;29;20527;-72
2022/06/01 11:27:20;;;;;;;4.13;2.20;;;;;;;;;;4802667;29;20057;-74
2022/06/01 11:30:08;;;;;;;9.18;2.55;;;;;;;;;;4816017;29;20057;-74
2022/06/01 11:32:49;;;;;;;12.52;3.13;;;;;;;;;;4816170;29;20042;-73
2022/06/01 11:35:39;;;;;;;5.40;2.55;;;;;;;;;;4815355;29;20061;-75
2022/06/01 11:38:17;;;;;;;8.73;2.65;;;;;;;;;;4815461;29;20075;-72
2022/06/01 11:40:58;;;;;;;7.60;2.85;;;;;;;;;;4815836;29;20054;-72
2022/06/01 11:43:47;;;;;;;4.15;2.78;;;;;;;;;;4817090;29;20055;-74
2022/06/01 11:46:37;;;;;;;5.45;2.25;;;;;;;;;;4817574;29;20057;-74
2022/06/01 11:49:25;;;;;;;7.10;3.00;;;;;;;;;;4820208;29;20533;-71
2022/06/01 11:51:55;;;;;;;3.67;2.50;;;;;;;;;;4804154;29;20058;-73
2022/06/01 11:54:34;;;;;;;3.95;2.42;;;;;;;;;;4820392;29;20165;-72
2022/06/01 11:57:25;;;;;;;9.88;2.65;;;;;;;;;;4820825;29;20046;-75
2022/06/01 12:00:05;;;;;;;13.35;2.92;;;;;;;;;;4819847;29;20055;-72
2022/06/01 12:02:44;;;;;;;21.45;3.75;;;;;;;;;;4820443;29;20057;-73
2022/06/01 12:05:28;;;;;;;11.57;7.22;;;;;;;;;;4820061;29;20077;-73
2022/06/01 12:08:22;;;;;;;9.98;4.82;;;;;;;;;;4819643;29;20061;-73
2022/06/01 12:10:56;;;;;;;9.13;4.45;;;;;;;;;;4803387;29;20050;-72
2022/06/01 12:13:51;;;;;;;10.85;3.15;;;;;;;;;;4819786;29;20050;-74
2022/06/01 12:16:21;;;;;;;9.00;3.05;;;;;;;;;;4809044;29;20073;-71
2022/06/01 12:19:09;;;;;;;5.75;3.15;;;;;;;;;;4820155;29;20134;-73
2022/06/01 12:21:42;;;;;;;9.55;2.95;;;;;;;;;;4819595;29;20443;-70
2022/06/01 12:30:05;;;;;;;4.72;2.30;;;;;;;;;;4803103;29;20303;-74
2022/06/01 12:33:00;;;;;;;8.23;2.83;;;;;;;;;;4820150;29;20055;-73
2022/06/01 12:35:57;;;;;;;8.80;2.85;;;;;;;;;;4819231;29;20050;-73
2022/06/01 12:38:33;;;;;;;13.52;3.47;;;;;;;;;;4817958;29;20062;-71
2022/06/01 12:41:16;;;;;;;4.40;2.10;;;;;;;;;;4819456;29;20054;-74
2022/06/01 12:44:09;;;;;;;9.32;2.10;;;;;;;;;;4820024;29;20050;-72
2022/06/01 12:46:44;;;;;;;6.25;2.00;;;;;;;;;;4819593;29;20062;-75
2022/06/01 12:49:28;;;;;;;4.35;1.70;;;;;;;;;;4818749;29;20490;-71
2022/06/01 12:52:12;;;;;;;13.60;2.10;;;;;;;;;;4819976;29;20084;-72
2022/06/01 12:55:00;;;;;;;18.33;2.42;;;;;;;;;;4818592;29;20527;-72
2022/06/01 12:57:34;;;;;;;3.33;1.25;;;;;;;;;;4818295;29;20054;-71
2022/06/01 13:00:10;;;;;;;3.47;1.55;;;;;;;;;;4819279;29;20523;-71
2022/06/01 13:02:42;;;;;;;6.20;2.22;;;;;;;;;;4819278;29;20399;-73
2022/06/01 13:05:18;;;;;;;7.28;3.22;;;;;;;;;;4819440;29;20058;-72
2022/06/01 13:07:53;;;;;;;8.68;4.93;;;;;;;;;;4818939;29;20054;-72
2022/06/01 13:10:31;;;;;;;9.95;3.67;;;;;;;;;;4819329;29;20050;-72
2022/06/01 13:13:08;;;;;;;7.57;2.42;;;;;;;;;;4802652;29;20054;-69
2022/06/01 13:15:44;;;;;;;6.93;3.33;;;;;;;;;;4818762;29;20058;-72
2022/06/01 13:18:20;;;;;;;5.75;3.58;;;;;;;;;;4819434;29;20125;-72
2022/06/01 13:21:17;;;;;;;8.45;3.25;;;;;;;;;;4819151;29;20395;-72
2022/06/01 13:24:03;;;;;;;7.00;3.10;;;;;;;;;;4811199;29;20062;-73
2022/06/01 13:26:41;;;;;;;28.88;5.63;;;;;;;;;;4819089;29;20050;-71
2022/06/01 13:29:40;;;;;;;18.65;4.00;;;;;;;;;;4818965;29;20065;-74
2022/06/01 13:32:12;;;;;;;5.72;2.55;;;;;;;;;;4818220;29;20051;-72
2022/06/01 13:35:01;;;;;;;4.78;2.28;;;;;;;;;;4818762;29;21080;-72
2022/06/01 13:37:41;;;;;;;5.30;2.45;;;;;;;;;;4801893;29;20554;-73
2022/06/01 13:40:34;;;;;;;5.68;2.03;;;;;;;;;;4818311;29;20058;-76
2022/06/01 13:43:16;;;;;;;5.13;2.00;;;;;;;;;;4818996;29;20557;-72
2022/06/01 13:45:54;;;;;;;6.15;2.15;;;;;;;;;;4818451;29;20050;-73
2022/06/01 13:48:40;;;;;;;17.38;5.60;;;;;;;;;;4817917;29;20526;-73
2022/06/01 13:51:22;;;;;;;4.55;2.50;;;;;;;;;;4818216;29;20057;-72
2022/06/01 13:53:52;;;;;;;41.80;5.50;;;;;;;;;;4818777;29;20053;-71
2022/06/01 13:56:30;;;;;;;11.32;2.33;;;;;;;;;;4817608;29;20404;-71
2022/06/01 13:59:34;;;;;;;7.38;1.75;;;;;;;;;;4817997;29;20059;-73
2022/06/01 14:02:15;;;;;;;6.97;1.50;;;;;;;;;;4818175;29;20419;-73
2022/06/01 14:04:58;;;;;;;9.68;2.22;;;;;;;;;;4818231;29;20065;-72
2022/06/01 14:07:42;;;;;;;11.32;1.85;;;;;;;;;;4818642;29;20407;-72
2022/06/01 14:10:13;;;;;;;8.07;2.17;;;;;;;;;;4818254;29;20058;-73
2022/06/01 14:12:45;;;;;;;12.05;2.80;;;;;;;;;;4818401;29;20058;-71
2022/06/01 14:15:15;;;;;;;11.40;2.22;;;;;;;;;;4818417;29;20049;-73
2022/06/01 14:17:46;;;;;;;5.20;1.98;;;;;;;;;;4817689;29;20054;-75
2022/06/01 14:20:15;;;;;;;8.95;1.83;;;;;;;;;;4817564;29;20065;-73
2022/06/01 14:22:45;;;;;;;8.32;1.77;;;;;;;;;;4817944;29;20474;-72
2022/06/01 14:30:52;;;;;;;6.32;1.95;;;;;;;;;;4818103;29;20057;-73
2022/06/01 14:33:21;;;;;;;4.88;1.73;;;;;;;;;;4817764;29;20498;-71
2022/06/01 14:35:53;;;;;;;17.27;2.65;;;;;;;;;;4817427;29;20541;-73
2022/06/01 14:38:24;;;;;;;11.95;1.70;;;;;;;;;;4817290;29;20050;-71
2022/06/01 14:41:03;;;;;;;9.45;1.70;;;;;;;;;;4817300;29;20093;-72
2022/06/01 14:43:39;;;;;;;7.57;1.93;;;;;;;;;;4817640;29;20102;-71
2022/06/01 14:46:09;;;;;;;6.45;1.67;;;;;;;;;;4817368;29;20054;-70
2022/06/01 14:48:39;;;;;;;24.67;3.17;;;;;;;;;;4817311;29;20085;-73
2022/06/01 14:51:11;;;;;;;7.03;1.92;;;;;;;;;;4816591;29;20058;-73
2022/06/01 14:53:42;;;;;;;13.43;2.72;;;;;;;;;;4817044;29;20051;-74
2022/06/01 14:56:12;;;;;;;8.02;2.17;;;;;;;;;;4817279;29;20070;-71
2022/06/01 14:58:41;;;;;;;14.80;6.18;;;;;;;;;;4817085;29;20062;-73
2022/06/01 15:01:16;;;;;;;6.63;2.05;;;;;;;;;;4801061;29;20387;-73
2022/06/01 15:03:49;;;;;;;9.80;2.20;;;;;;;;;;4817630;29;20529;-71
2022/06/01 15:06:20;;;;;;;14.23;1.92;;;;;;;;;;4817423;29;20578;-72
2022/06/01 15:08:49;;;;;;;19.23;3.60;;;;;;;;;;4817037;29;20538;-71
2022/06/01 15:11:19;;;;;;;13.13;2.08;;;;;;;;;;4800687;29;20058;-71
2022/06/01 15:13:49;;;;;;;6.30;1.70;;;;;;;;;;4817026;29;20522;-72
2022/06/01 15:16:19;;;;;;;9.18;3.40;;;;;;;;;;4817216;29;20054;-72
2022/06/01 15:18:53;;;;;;;21.38;5.97;;;;;;;;;;4816986;29;20057;-71
2022/06/01 15:21:23;;;;;;;8.65;4.93;;;;;;;;;;4818700;29;20047;-74
2022/06/01 15:23:54;;;;;;;9.73;4.53;;;;;;;;;;4820357;29;20606;-72
2022/06/01 15:26:25;;;;;;;7.70;4.22;;;;;;;;;;4819947;29;20062;-77
2022/06/01 15:28:55;;;;;;;13.68;5.30;;;;;;;;;;4803783;29;20062;-74
2022/06/01 15:39:51;;;;;;;12.18;3.72;;;;;;;;;;4820489;29;20407;-73
2022/06/01 15:42:21;;;;;;;12.82;4.82;;;;;;;;;;4820486;29;20056;-72
2022/06/01 15:44:50;;;;;;;9.45;4.03;;;;;;;;;;4819472;29;20526;-71
2022/06/01 15:47:20;;;;;;;18.85;11.68;;;;;;;;;;4819976;29;20130;-72
2022/06/01 15:49:50;;;;;;;14.80;4.10;;;;;;;;;;4819911;29;20434;-74
2022/06/01 15:52:24;;;;;;;13.20;3.80;;;;;;;;;;4820112;29;20054;-72
2022/06/01 15:54:55;;;;;;;18.08;4.90;;;;;;;;;;4819856;29;20046;-75
2022/06/01 15:57:25;;;;;;;29.45;16.92;;;;;;;;;;4819738;29;20490;-72
2022/06/01 15:59:54;;;;;;;24.23;5.40;;;;;;;;;;4820475;29;20062;-71
2022/06/01 16:02:28;;;;;;;9.20;3.50;;;;;;;;;;4820121;29;20065;-72
2022/06/01 16:04:58;;;;;;;8.43;4.20;;;;;;;;;;4820103;29;20061;-75
2022/06/01 16:07:28;;;;;;;10.05;6.78;;;;;;;;;;4819774;29;20054;-73
2022/06/01 16:09:58;;;;;;;12.43;5.25;;;;;;;;;;4819420;29;20058;-74